<?xml version="1.0" encoding="UTF-8" standalone="no" ?>
<gpx xmlns="http://www.topografix.com/GPX/1/1" xmlns:xsi="http://www.w3.org/2001/XMLSchema-instance" xsi:schemaLocation="http://www.topografix.com/GPX/1/1 http://www.topografix.com/GPX/1/1/gpx.xsd" version="1.1" creator="VisuGPX - https://www.visugpx.com">
  <metadata>
    <name>GRPMelusine_J1_J4</name>
    <desc><![CDATA[gnerando idor: 13423745_12434211_12434219_12434226_12434235]]></desc>
  </metadata>
  <trk>
    <name><![CDATA[GRPMelusineJ4_FoussaisP_StMichelC_21.8km-12434235]]></name>
    <extensions>
      <line xmlns="http://www.topografix.com/GPX/gpx_style/0/2">
        <color>FF0000</color>
        <width>4</width>
      </line>
    </extensions>
    <trkseg>
      <trkpt lat="46.52946" lon="-0.68364">
        <ele>88</ele>
        <time>2023-10-30T09:47:29Z</time>
      </trkpt>
      <trkpt lat="46.52875" lon="-0.68591">
        <ele>92</ele>
        <time>2023-10-30T09:51:18Z</time>
      </trkpt>
      <trkpt lat="46.52834" lon="-0.6845">
        <ele>88</ele>
        <time>2023-10-30T09:53:38Z</time>
      </trkpt>
      <trkpt lat="46.52409" lon="-0.6863">
        <ele>89</ele>
        <time>2023-10-30T10:03:29Z</time>
      </trkpt>
      <trkpt lat="46.51535" lon="-0.69222">
        <ele>83</ele>
        <time>2023-10-30T10:24:56Z</time>
      </trkpt>
      <trkpt lat="46.5147" lon="-0.69077">
        <ele>81</ele>
        <time>2023-10-30T10:27:35Z</time>
      </trkpt>
      <trkpt lat="46.50217" lon="-0.6918">
        <ele>70</ele>
        <time>2023-10-30T10:55:30Z</time>
      </trkpt>
      <trkpt lat="46.5007" lon="-0.68785">
        <ele>60</ele>
        <time>2023-10-30T11:02:22Z</time>
      </trkpt>
      <trkpt lat="46.49987" lon="-0.68845">
        <ele>58</ele>
        <time>2023-10-30T11:04:26Z</time>
      </trkpt>
      <trkpt lat="46.49697" lon="-0.68441">
        <ele>55</ele>
        <time>2023-10-30T11:13:22Z</time>
      </trkpt>
      <trkpt lat="46.48581" lon="-0.67763">
        <ele>83</ele>
        <time>2023-10-30T11:40:16Z</time>
      </trkpt>
      <trkpt lat="46.48007" lon="-0.67042">
        <ele>64</ele>
        <time>2023-10-30T11:57:09Z</time>
      </trkpt>
      <trkpt lat="46.47854" lon="-0.66167">
        <ele>52</ele>
        <time>2023-10-30T12:10:59Z</time>
      </trkpt>
      <trkpt lat="46.47564" lon="-0.65738">
        <ele>51</ele>
        <time>2023-10-30T12:20:11Z</time>
      </trkpt>
      <trkpt lat="46.46725" lon="-0.65334">
        <ele>46</ele>
        <time>2023-10-30T12:39:51Z</time>
      </trkpt>
      <trkpt lat="46.46361" lon="-0.65484">
        <ele>20</ele>
        <time>2023-10-30T12:48:16Z</time>
      </trkpt>
      <trkpt lat="46.46595" lon="-0.66304">
        <ele>24</ele>
        <time>2023-10-30T13:01:51Z</time>
      </trkpt>
      <trkpt lat="46.46997" lon="-0.66648">
        <ele>50</ele>
        <time>2023-10-30T13:12:14Z</time>
      </trkpt>
      <trkpt lat="46.46754" lon="-0.67746">
        <ele>42</ele>
        <time>2023-10-30T13:29:54Z</time>
      </trkpt>
      <trkpt lat="46.47464" lon="-0.68699">
        <ele>47</ele>
        <time>2023-10-30T13:51:24Z</time>
      </trkpt>
      <trkpt lat="46.47789" lon="-0.68682">
        <ele>59</ele>
        <time>2023-10-30T13:58:38Z</time>
      </trkpt>
      <trkpt lat="46.47783" lon="-0.68913">
        <ele>62</ele>
        <time>2023-10-30T14:02:11Z</time>
      </trkpt>
      <trkpt lat="46.48102" lon="-0.69162">
        <ele>77</ele>
        <time>2023-10-30T14:10:14Z</time>
      </trkpt>
      <trkpt lat="46.47735" lon="-0.69394">
        <ele>60</ele>
        <time>2023-10-30T14:19:08Z</time>
      </trkpt>
      <trkpt lat="46.47747" lon="-0.69566">
        <ele>59</ele>
        <time>2023-10-30T14:21:47Z</time>
      </trkpt>
      <trkpt lat="46.47564" lon="-0.69523">
        <ele>56</ele>
        <time>2023-10-30T14:25:55Z</time>
      </trkpt>
      <trkpt lat="46.47605" lon="-0.69978">
        <ele>56</ele>
        <time>2023-10-30T14:32:56Z</time>
      </trkpt>
      <trkpt lat="46.47334" lon="-0.70107">
        <ele>58</ele>
        <time>2023-10-30T14:39:17Z</time>
      </trkpt>
      <trkpt lat="46.47215" lon="-0.70647">
        <ele>63</ele>
        <time>2023-10-30T14:47:58Z</time>
      </trkpt>
      <trkpt lat="46.47404" lon="-0.70596">
        <ele>59</ele>
        <time>2023-10-30T14:52:14Z</time>
      </trkpt>
      <trkpt lat="46.47564" lon="-0.7081">
        <ele>51</ele>
        <time>2023-10-30T14:57:05Z</time>
      </trkpt>
      <trkpt lat="46.4754" lon="-0.71179">
        <ele>52</ele>
        <time>2023-10-30T15:02:45Z</time>
      </trkpt>
      <trkpt lat="46.46914" lon="-0.71437">
        <ele>55</ele>
        <time>2023-10-30T15:17:14Z</time>
      </trkpt>
      <trkpt lat="46.46914" lon="-0.72664">
        <ele>67</ele>
        <time>2023-10-30T15:36:01Z</time>
      </trkpt>
      <trkpt lat="46.4702" lon="-0.72879">
        <ele>68</ele>
        <time>2023-10-30T15:40:04Z</time>
      </trkpt>
      <trkpt lat="46.47363" lon="-0.72321">
        <ele>59</ele>
        <time>2023-10-30T15:51:32Z</time>
      </trkpt>
      <trkpt lat="46.47334" lon="-0.72244">
        <ele>60</ele>
        <time>2023-10-30T15:52:53Z</time>
      </trkpt>
      <trkpt lat="46.47399" lon="-0.72106">
        <ele>56</ele>
        <time>2023-10-30T15:55:26Z</time>
      </trkpt>
      <trkpt lat="46.47907" lon="-0.7299">
        <ele>69</ele>
        <time>2023-10-30T16:13:04Z</time>
      </trkpt>
      <trkpt lat="46.47996" lon="-0.73377">
        <ele>83</ele>
        <time>2023-10-30T16:19:19Z</time>
      </trkpt>
      <trkpt lat="46.48096" lon="-0.73299">
        <ele>87</ele>
        <time>2023-10-30T16:21:51Z</time>
      </trkpt>
      <trkpt lat="46.4835" lon="-0.73797">
        <ele>79</ele>
        <time>2023-10-30T16:31:20Z</time>
      </trkpt>
      <trkpt lat="46.48409" lon="-0.7408">
        <ele>83</ele>
        <time>2023-10-30T16:35:52Z</time>
      </trkpt>
      <trkpt lat="46.47996" lon="-0.74587">
        <ele>85</ele>
        <time>2023-10-30T16:47:53Z</time>
      </trkpt>
      <trkpt lat="46.48321" lon="-0.75171">
        <ele>86</ele>
        <time>2023-10-30T16:59:23Z</time>
      </trkpt>
      <trkpt lat="46.48539" lon="-0.75205">
        <ele>91</ele>
        <time>2023-10-30T17:04:16Z</time>
      </trkpt>
    </trkseg>
  </trk>
</gpx>